sensor_id;sensor_type;location;lat;lon;timestamp;temperature;humidity
71879;DHT22;59755;43.834;4.364;2022-07-03T00:01:49;23.40;46.40
71879;DHT22;59755;43.834;4.364;2022-07-03T00:04:15;23.30;46.80
71879;DHT22;59755;43.834;4.364;2022-07-03T00:06:41;23.40;47.10
71879;DHT22;59755;43.834;4.364;2022-07-03T00:09:07;23.50;47.00
71879;DHT22;59755;43.834;4.364;2022-07-03T00:11:33;23.50;47.40
71879;DHT22;59755;43.834;4.364;2022-07-03T00:13:59;23.40;47.60
71879;DHT22;59755;43.834;4.364;2022-07-03T00:16:25;23.40;47.70
71879;DHT22;59755;43.834;4.364;2022-07-03T00:18:51;23.30;48.00
71879;DHT22;59755;43.834;4.364;2022-07-03T00:21:20;23.30;48.20
71879;DHT22;59755;43.834;4.364;2022-07-03T00:23:52;23.10;48.80
71879;DHT22;59755;43.834;4.364;2022-07-03T00:26:20;23.20;48.70
71879;DHT22;59755;43.834;4.364;2022-07-03T00:28:46;23.30;48.50
71879;DHT22;59755;43.834;4.364;2022-07-03T00:31:13;23.30;48.70
71879;DHT22;59755;43.834;4.364;2022-07-03T00:33:39;23.30;48.40
71879;DHT22;59755;43.834;4.364;2022-07-03T00:36:06;23.20;48.40
71879;DHT22;59755;43.834;4.364;2022-07-03T00:38:32;23.20;48.40
71879;DHT22;59755;43.834;4.364;2022-07-03T00:41:00;23.30;48.20
71879;DHT22;59755;43.834;4.364;2022-07-03T00:43:26;23.30;48.30
71879;DHT22;59755;43.834;4.364;2022-07-03T00:45:53;23.20;48.60
71879;DHT22;59755;43.834;4.364;2022-07-03T00:48:20;23.20;48.80
71879;DHT22;59755;43.834;4.364;2022-07-03T00:50:48;23.20;48.60
71879;DHT22;59755;43.834;4.364;2022-07-03T00:53:19;23.20;48.70
71879;DHT22;59755;43.834;4.364;2022-07-03T00:55:49;23.10;48.80
71879;DHT22;59755;43.834;4.364;2022-07-03T00:58:17;23.10;49.10
71879;DHT22;59755;43.834;4.364;2022-07-03T01:00:44;23.20;49.00
71879;DHT22;59755;43.834;4.364;2022-07-03T01:03:17;23.20;49.00
71879;DHT22;59755;43.834;4.364;2022-07-03T01:05:45;23.20;49.20
71879;DHT22;59755;43.834;4.364;2022-07-03T01:11:23;23.10;49.60
71879;DHT22;59755;43.834;4.364;2022-07-03T01:14:15;23.10;49.70
71879;DHT22;59755;43.834;4.364;2022-07-03T01:16:59;23.00;49.60
71879;DHT22;59755;43.834;4.364;2022-07-03T01:22:32;22.90;50.10
71879;DHT22;59755;43.834;4.364;2022-07-03T01:30:20;22.80;51.00
71879;DHT22;59755;43.834;4.364;2022-07-03T01:33:03;22.80;51.20
71879;DHT22;59755;43.834;4.364;2022-07-03T01:35:38;22.70;51.40
71879;DHT22;59755;43.834;4.364;2022-07-03T01:38:10;22.60;51.80
71879;DHT22;59755;43.834;4.364;2022-07-03T01:40:38;22.60;52.00
71879;DHT22;59755;43.834;4.364;2022-07-03T01:43:07;22.70;51.60
71879;DHT22;59755;43.834;4.364;2022-07-03T01:45:37;22.80;51.50
71879;DHT22;59755;43.834;4.364;2022-07-03T01:48:05;22.70;51.60
71879;DHT22;59755;43.834;4.364;2022-07-03T01:50:32;22.60;51.80
71879;DHT22;59755;43.834;4.364;2022-07-03T01:53:00;22.60;51.80
71879;DHT22;59755;43.834;4.364;2022-07-03T01:55:31;22.60;51.80
71879;DHT22;59755;43.834;4.364;2022-07-03T01:57:57;22.60;51.70
71879;DHT22;59755;43.834;4.364;2022-07-03T02:00:24;22.50;52.00
71879;DHT22;59755;43.834;4.364;2022-07-03T02:02:52;22.50;52.10
71879;DHT22;59755;43.834;4.364;2022-07-03T02:05:46;22.40;52.10
71879;DHT22;59755;43.834;4.364;2022-07-03T02:14:24;22.40;51.90
71879;DHT22;59755;43.834;4.364;2022-07-03T02:16:25;22.60;51.00
71879;DHT22;59755;43.834;4.364;2022-07-03T02:19:04;22.50;50.80
71879;DHT22;59755;43.834;4.364;2022-07-03T02:21:30;22.60;50.50
71879;DHT22;59755;43.834;4.364;2022-07-03T02:24:03;22.50;50.50
71879;DHT22;59755;43.834;4.364;2022-07-03T02:26:38;22.50;50.60
71879;DHT22;59755;43.834;4.364;2022-07-03T02:29:06;22.50;50.50
71879;DHT22;59755;43.834;4.364;2022-07-03T02:31:46;22.40;50.60
71879;DHT22;59755;43.834;4.364;2022-07-03T02:34:17;22.40;50.80
71879;DHT22;59755;43.834;4.364;2022-07-03T02:36:47;22.50;50.50
71879;DHT22;59755;43.834;4.364;2022-07-03T02:39:46;22.40;50.70
71879;DHT22;59755;43.834;4.364;2022-07-03T02:42:29;22.50;50.60
71879;DHT22;59755;43.834;4.364;2022-07-03T02:44:59;22.50;50.80
71879;DHT22;59755;43.834;4.364;2022-07-03T02:47:33;22.40;51.00
71879;DHT22;59755;43.834;4.364;2022-07-03T02:50:07;22.60;50.80
71879;DHT22;59755;43.834;4.364;2022-07-03T02:52:42;22.50;51.00
71879;DHT22;59755;43.834;4.364;2022-07-03T02:55:23;22.40;51.50
71879;DHT22;59755;43.834;4.364;2022-07-03T02:58:43;22.40;51.50
71879;DHT22;59755;43.834;4.364;2022-07-03T03:01:23;22.40;51.40
71879;DHT22;59755;43.834;4.364;2022-07-03T03:06:52;22.40;50.80
71879;DHT22;59755;43.834;4.364;2022-07-03T03:09:24;22.20;50.60
71879;DHT22;59755;43.834;4.364;2022-07-03T03:11:52;22.20;50.40
71879;DHT22;59755;43.834;4.364;2022-07-03T03:14:21;22.20;50.60
71879;DHT22;59755;43.834;4.364;2022-07-03T03:16:53;22.10;50.40
71879;DHT22;59755;43.834;4.364;2022-07-03T03:19:23;22.00;50.20
71879;DHT22;59755;43.834;4.364;2022-07-03T03:24:56;22.00;50.40
71879;DHT22;59755;43.834;4.364;2022-07-03T03:27:22;21.70;51.10
71879;DHT22;59755;43.834;4.364;2022-07-03T03:29:48;21.50;51.30
71879;DHT22;59755;43.834;4.364;2022-07-03T03:32:16;21.60;50.80
71879;DHT22;59755;43.834;4.364;2022-07-03T03:34:43;21.70;50.50
71879;DHT22;59755;43.834;4.364;2022-07-03T03:37:11;21.60;50.50
71879;DHT22;59755;43.834;4.364;2022-07-03T03:39:37;21.50;50.80
71879;DHT22;59755;43.834;4.364;2022-07-03T03:42:03;21.40;51.00
71879;DHT22;59755;43.834;4.364;2022-07-03T03:44:29;21.20;51.50
71879;DHT22;59755;43.834;4.364;2022-07-03T03:46:55;21.20;51.30
71879;DHT22;59755;43.834;4.364;2022-07-03T03:49:21;21.20;51.30
71879;DHT22;59755;43.834;4.364;2022-07-03T03:51:47;21.10;51.70
71879;DHT22;59755;43.834;4.364;2022-07-03T03:54:13;21.20;51.60
71879;DHT22;59755;43.834;4.364;2022-07-03T03:56:39;21.20;51.80
71879;DHT22;59755;43.834;4.364;2022-07-03T03:59:05;21.10;52.10
71879;DHT22;59755;43.834;4.364;2022-07-03T04:01:30;21.20;52.00
71879;DHT22;59755;43.834;4.364;2022-07-03T04:03:56;21.40;51.70
71879;DHT22;59755;43.834;4.364;2022-07-03T04:06:25;21.50;51.70
71879;DHT22;59755;43.834;4.364;2022-07-03T04:08:51;21.50;51.50
71879;DHT22;59755;43.834;4.364;2022-07-03T04:11:17;21.60;51.10
71879;DHT22;59755;43.834;4.364;2022-07-03T04:13:42;21.50;51.20
71879;DHT22;59755;43.834;4.364;2022-07-03T04:16:08;21.40;51.50
71879;DHT22;59755;43.834;4.364;2022-07-03T04:18:34;21.40;51.20
71879;DHT22;59755;43.834;4.364;2022-07-03T04:21:00;21.50;51.20
71879;DHT22;59755;43.834;4.364;2022-07-03T04:23:26;21.50;51.50
71879;DHT22;59755;43.834;4.364;2022-07-03T04:25:52;21.40;51.60
71879;DHT22;59755;43.834;4.364;2022-07-03T04:28:17;21.30;51.90
71879;DHT22;59755;43.834;4.364;2022-07-03T04:30:43;21.30;52.00
71879;DHT22;59755;43.834;4.364;2022-07-03T04:33:09;21.40;52.10
71879;DHT22;59755;43.834;4.364;2022-07-03T04:35:35;21.50;51.30
71879;DHT22;59755;43.834;4.364;2022-07-03T04:38:00;21.70;50.60
71879;DHT22;59755;43.834;4.364;2022-07-03T04:40:26;21.70;50.90
71879;DHT22;59755;43.834;4.364;2022-07-03T04:42:52;21.60;51.00
71879;DHT22;59755;43.834;4.364;2022-07-03T04:45:18;21.50;51.40
71879;DHT22;59755;43.834;4.364;2022-07-03T04:47:43;21.50;51.00
71879;DHT22;59755;43.834;4.364;2022-07-03T04:50:09;21.50;51.20
71879;DHT22;59755;43.834;4.364;2022-07-03T04:52:35;21.40;51.50
71879;DHT22;59755;43.834;4.364;2022-07-03T04:55:01;21.40;51.70
71879;DHT22;59755;43.834;4.364;2022-07-03T04:57:27;21.40;51.30
71879;DHT22;59755;43.834;4.364;2022-07-03T04:59:54;21.50;51.40
71879;DHT22;59755;43.834;4.364;2022-07-03T05:02:20;21.50;51.60
71879;DHT22;59755;43.834;4.364;2022-07-03T05:04:45;21.60;51.30
71879;DHT22;59755;43.834;4.364;2022-07-03T05:07:11;21.60;51.00
71879;DHT22;59755;43.834;4.364;2022-07-03T05:09:37;21.60;50.60
71879;DHT22;59755;43.834;4.364;2022-07-03T05:12:03;21.60;50.70
71879;DHT22;59755;43.834;4.364;2022-07-03T05:14:29;21.60;50.60
71879;DHT22;59755;43.834;4.364;2022-07-03T05:16:54;21.50;50.30
71879;DHT22;59755;43.834;4.364;2022-07-03T05:19:20;21.60;50.50
71879;DHT22;59755;43.834;4.364;2022-07-03T05:21:46;21.70;50.40
71879;DHT22;59755;43.834;4.364;2022-07-03T05:24:12;21.70;50.40
71879;DHT22;59755;43.834;4.364;2022-07-03T05:26:37;21.70;50.20
71879;DHT22;59755;43.834;4.364;2022-07-03T05:29:03;21.80;49.50
71879;DHT22;59755;43.834;4.364;2022-07-03T05:31:29;21.90;48.70
71879;DHT22;59755;43.834;4.364;2022-07-03T05:33:54;22.00;49.00
71879;DHT22;59755;43.834;4.364;2022-07-03T05:36:20;22.00;50.10
71879;DHT22;59755;43.834;4.364;2022-07-03T05:38:46;21.90;49.50
71879;DHT22;59755;43.834;4.364;2022-07-03T05:41:30;22.00;48.80
71879;DHT22;59755;43.834;4.364;2022-07-03T05:43:56;22.00;49.10
71879;DHT22;59755;43.834;4.364;2022-07-03T05:46:23;22.00;49.30
71879;DHT22;59755;43.834;4.364;2022-07-03T05:48:48;22.00;49.00
71879;DHT22;59755;43.834;4.364;2022-07-03T05:51:14;22.00;49.10
71879;DHT22;59755;43.834;4.364;2022-07-03T05:53:40;22.10;48.50
71879;DHT22;59755;43.834;4.364;2022-07-03T05:56:06;22.20;48.10
71879;DHT22;59755;43.834;4.364;2022-07-03T05:58:31;22.30;47.60
71879;DHT22;59755;43.834;4.364;2022-07-03T06:00:57;22.50;47.20
71879;DHT22;59755;43.834;4.364;2022-07-03T06:03:23;22.60;47.10
71879;DHT22;59755;43.834;4.364;2022-07-03T06:05:49;22.70;47.20
71879;DHT22;59755;43.834;4.364;2022-07-03T06:08:14;22.80;46.50
71879;DHT22;59755;43.834;4.364;2022-07-03T06:10:40;22.80;47.10
71879;DHT22;59755;43.834;4.364;2022-07-03T06:13:06;22.80;47.10
71879;DHT22;59755;43.834;4.364;2022-07-03T06:15:31;22.90;47.00
71879;DHT22;59755;43.834;4.364;2022-07-03T06:17:58;22.90;47.30
71879;DHT22;59755;43.834;4.364;2022-07-03T06:20:23;23.00;47.40
71879;DHT22;59755;43.834;4.364;2022-07-03T06:22:49;23.10;47.10
71879;DHT22;59755;43.834;4.364;2022-07-03T06:25:15;23.20;47.20
71879;DHT22;59755;43.834;4.364;2022-07-03T06:27:41;23.20;47.10
71879;DHT22;59755;43.834;4.364;2022-07-03T06:30:08;23.30;46.80
71879;DHT22;59755;43.834;4.364;2022-07-03T06:32:34;23.40;46.50
71879;DHT22;59755;43.834;4.364;2022-07-03T06:35:00;23.40;46.70
71879;DHT22;59755;43.834;4.364;2022-07-03T06:37:26;23.50;46.00
71879;DHT22;59755;43.834;4.364;2022-07-03T06:39:52;23.60;46.10
71879;DHT22;59755;43.834;4.364;2022-07-03T06:42:17;23.60;45.90
71879;DHT22;59755;43.834;4.364;2022-07-03T06:44:43;23.70;46.20
71879;DHT22;59755;43.834;4.364;2022-07-03T06:47:10;23.80;45.50
71879;DHT22;59755;43.834;4.364;2022-07-03T06:49:36;23.90;45.40
71879;DHT22;59755;43.834;4.364;2022-07-03T06:52:02;24.00;45.30
71879;DHT22;59755;43.834;4.364;2022-07-03T06:54:27;24.00;45.90
71879;DHT22;59755;43.834;4.364;2022-07-03T06:56:53;24.00;45.40
71879;DHT22;59755;43.834;4.364;2022-07-03T06:59:19;24.10;45.10
71879;DHT22;59755;43.834;4.364;2022-07-03T07:01:45;24.10;45.20
71879;DHT22;59755;43.834;4.364;2022-07-03T07:04:11;24.10;45.40
71879;DHT22;59755;43.834;4.364;2022-07-03T07:06:36;24.20;45.10
71879;DHT22;59755;43.834;4.364;2022-07-03T07:09:03;24.20;44.60
71879;DHT22;59755;43.834;4.364;2022-07-03T07:11:29;24.30;45.30
71879;DHT22;59755;43.834;4.364;2022-07-03T07:13:55;24.40;44.30
71879;DHT22;59755;43.834;4.364;2022-07-03T07:16:21;24.50;45.10
71879;DHT22;59755;43.834;4.364;2022-07-03T07:18:47;24.50;46.00
71879;DHT22;59755;43.834;4.364;2022-07-03T07:21:13;24.60;46.00
71879;DHT22;59755;43.834;4.364;2022-07-03T07:23:38;24.60;45.70
71879;DHT22;59755;43.834;4.364;2022-07-03T07:26:04;24.70;45.80
71879;DHT22;59755;43.834;4.364;2022-07-03T07:28:30;24.70;45.50
71879;DHT22;59755;43.834;4.364;2022-07-03T07:30:58;24.80;45.00
71879;DHT22;59755;43.834;4.364;2022-07-03T07:33:24;24.90;44.70
71879;DHT22;59755;43.834;4.364;2022-07-03T07:35:50;25.00;44.40
71879;DHT22;59755;43.834;4.364;2022-07-03T07:38:17;25.00;45.00
71879;DHT22;59755;43.834;4.364;2022-07-03T07:40:42;25.10;44.00
71879;DHT22;59755;43.834;4.364;2022-07-03T07:43:08;25.20;43.70
71879;DHT22;59755;43.834;4.364;2022-07-03T07:45:34;25.20;43.90
71879;DHT22;59755;43.834;4.364;2022-07-03T07:48:00;25.30;43.60
71879;DHT22;59755;43.834;4.364;2022-07-03T07:50:27;25.40;43.10
71879;DHT22;59755;43.834;4.364;2022-07-03T07:52:52;25.50;42.70
71879;DHT22;59755;43.834;4.364;2022-07-03T07:55:18;25.60;42.30
71879;DHT22;59755;43.834;4.364;2022-07-03T07:57:46;25.70;43.10
71879;DHT22;59755;43.834;4.364;2022-07-03T08:00:14;25.80;42.80
71879;DHT22;59755;43.834;4.364;2022-07-03T08:02:41;26.00;41.70
71879;DHT22;59755;43.834;4.364;2022-07-03T08:05:26;26.00;41.60
71879;DHT22;59755;43.834;4.364;2022-07-03T08:08:10;26.10;41.80
71879;DHT22;59755;43.834;4.364;2022-07-03T08:10:47;26.20;41.50
71879;DHT22;59755;43.834;4.364;2022-07-03T08:13:15;26.20;41.50
71879;DHT22;59755;43.834;4.364;2022-07-03T08:15:41;26.30;41.90
71879;DHT22;59755;43.834;4.364;2022-07-03T08:18:08;26.50;42.10
71879;DHT22;59755;43.834;4.364;2022-07-03T08:20:35;26.60;41.70
71879;DHT22;59755;43.834;4.364;2022-07-03T08:23:01;26.60;41.50
71879;DHT22;59755;43.834;4.364;2022-07-03T08:25:27;26.70;41.20
71879;DHT22;59755;43.834;4.364;2022-07-03T08:27:53;26.80;40.50
71879;DHT22;59755;43.834;4.364;2022-07-03T08:30:19;26.80;40.90
71879;DHT22;59755;43.834;4.364;2022-07-03T08:32:49;27.00;40.60
71879;DHT22;59755;43.834;4.364;2022-07-03T08:35:16;27.00;40.00
71879;DHT22;59755;43.834;4.364;2022-07-03T08:37:42;27.10;40.20
71879;DHT22;59755;43.834;4.364;2022-07-03T08:40:10;27.20;39.60
71879;DHT22;59755;43.834;4.364;2022-07-03T08:42:46;27.30;39.60
71879;DHT22;59755;43.834;4.364;2022-07-03T08:45:17;27.50;39.70
71879;DHT22;59755;43.834;4.364;2022-07-03T08:47:44;27.60;39.50
71879;DHT22;59755;43.834;4.364;2022-07-03T08:50:11;27.70;38.80
71879;DHT22;59755;43.834;4.364;2022-07-03T08:52:38;27.80;38.10
71879;DHT22;59755;43.834;4.364;2022-07-03T08:55:04;27.90;38.10
71879;DHT22;59755;43.834;4.364;2022-07-03T08:57:38;27.90;37.20
71879;DHT22;59755;43.834;4.364;2022-07-03T09:00:12;28.00;37.90
71879;DHT22;59755;43.834;4.364;2022-07-03T09:02:39;28.10;37.50
71879;DHT22;59755;43.834;4.364;2022-07-03T09:05:07;28.20;37.10
71879;DHT22;59755;43.834;4.364;2022-07-03T09:07:40;28.30;37.00
71879;DHT22;59755;43.834;4.364;2022-07-03T09:10:08;28.30;36.30
71879;DHT22;59755;43.834;4.364;2022-07-03T09:12:35;28.40;36.30
71879;DHT22;59755;43.834;4.364;2022-07-03T09:15:03;28.50;35.70
71879;DHT22;59755;43.834;4.364;2022-07-03T09:17:30;28.50;36.10
71879;DHT22;59755;43.834;4.364;2022-07-03T09:20:03;28.70;36.00
71879;DHT22;59755;43.834;4.364;2022-07-03T09:22:35;28.80;35.40
71879;DHT22;59755;43.834;4.364;2022-07-03T09:25:10;28.90;35.40
71879;DHT22;59755;43.834;4.364;2022-07-03T09:27:50;29.10;35.00
71879;DHT22;59755;43.834;4.364;2022-07-03T09:30:17;29.10;34.00
71879;DHT22;59755;43.834;4.364;2022-07-03T09:32:44;29.20;34.40
71879;DHT22;59755;43.834;4.364;2022-07-03T09:38:00;29.40;34.20
71879;DHT22;59755;43.834;4.364;2022-07-03T09:40:45;29.40;34.60
71879;DHT22;59755;43.834;4.364;2022-07-03T09:43:12;29.60;34.00
71879;DHT22;59755;43.834;4.364;2022-07-03T09:48:31;29.60;33.80
71879;DHT22;59755;43.834;4.364;2022-07-03T09:53:47;30.00;33.50
71879;DHT22;59755;43.834;4.364;2022-07-03T09:56:13;30.00;33.50
71879;DHT22;59755;43.834;4.364;2022-07-03T09:58:39;30.00;33.70
71879;DHT22;59755;43.834;4.364;2022-07-03T10:01:18;30.10;33.50
71879;DHT22;59755;43.834;4.364;2022-07-03T10:03:44;30.30;33.50
71879;DHT22;59755;43.834;4.364;2022-07-03T10:06:10;30.40;33.00
71879;DHT22;59755;43.834;4.364;2022-07-03T10:08:36;30.60;32.60
71879;DHT22;59755;43.834;4.364;2022-07-03T10:11:03;30.60;32.30
71879;DHT22;59755;43.834;4.364;2022-07-03T10:13:30;30.60;31.60
71879;DHT22;59755;43.834;4.364;2022-07-03T10:15:59;30.80;31.60
71879;DHT22;59755;43.834;4.364;2022-07-03T10:18:29;30.80;31.40
71879;DHT22;59755;43.834;4.364;2022-07-03T10:20:57;30.90;31.00
71879;DHT22;59755;43.834;4.364;2022-07-03T10:23:26;31.20;30.80
71879;DHT22;59755;43.834;4.364;2022-07-03T10:25:53;31.60;30.60
71879;DHT22;59755;43.834;4.364;2022-07-03T10:28:19;31.60;30.70
71879;DHT22;59755;43.834;4.364;2022-07-03T10:30:48;31.70;30.10
71879;DHT22;59755;43.834;4.364;2022-07-03T10:33:14;31.80;29.60
71879;DHT22;59755;43.834;4.364;2022-07-03T10:35:48;32.00;29.40
71879;DHT22;59755;43.834;4.364;2022-07-03T10:38:41;32.20;28.70
71879;DHT22;59755;43.834;4.364;2022-07-03T10:41:33;32.40;29.40
71879;DHT22;59755;43.834;4.364;2022-07-03T10:44:18;32.60;29.30
71879;DHT22;59755;43.834;4.364;2022-07-03T10:47:03;33.20;28.30
71879;DHT22;59755;43.834;4.364;2022-07-03T10:49:29;33.00;27.90
71879;DHT22;59755;43.834;4.364;2022-07-03T10:54:26;33.10;27.70
71879;DHT22;59755;43.834;4.364;2022-07-03T10:57:14;33.00;27.60
71879;DHT22;59755;43.834;4.364;2022-07-03T11:02:23;33.30;26.60
71879;DHT22;59755;43.834;4.364;2022-07-03T11:07:28;34.50;25.70
71879;DHT22;59755;43.834;4.364;2022-07-03T11:13:08;37.00;23.70
71879;DHT22;59755;43.834;4.364;2022-07-03T11:25:53;39.70;20.70
71879;DHT22;59755;43.834;4.364;2022-07-03T11:44:06;41.30;19.50
71879;DHT22;59755;43.834;4.364;2022-07-03T11:46:36;41.30;19.70
71879;DHT22;59755;43.834;4.364;2022-07-03T11:49:14;41.80;18.80
71879;DHT22;59755;43.834;4.364;2022-07-03T11:51:43;41.50;18.90
71879;DHT22;59755;43.834;4.364;2022-07-03T11:54:09;41.80;19.00
71879;DHT22;59755;43.834;4.364;2022-07-03T11:56:35;41.80;19.10
71879;DHT22;59755;43.834;4.364;2022-07-03T11:59:03;42.40;18.90
71879;DHT22;59755;43.834;4.364;2022-07-03T12:01:32;42.90;18.60
71879;DHT22;59755;43.834;4.364;2022-07-03T12:04:16;41.90;18.80
71879;DHT22;59755;43.834;4.364;2022-07-03T12:06:59;41.70;19.10
71879;DHT22;59755;43.834;4.364;2022-07-03T12:12:07;42.20;19.10
71879;DHT22;59755;43.834;4.364;2022-07-03T12:17:03;42.30;18.90
71879;DHT22;59755;43.834;4.364;2022-07-03T12:19:29;42.40;18.40
71879;DHT22;59755;43.834;4.364;2022-07-03T12:21:55;42.30;18.50
71879;DHT22;59755;43.834;4.364;2022-07-03T12:24:20;42.60;18.20
71879;DHT22;59755;43.834;4.364;2022-07-03T12:26:47;41.90;19.00
71879;DHT22;59755;43.834;4.364;2022-07-03T12:29:15;41.50;19.10
71879;DHT22;59755;43.834;4.364;2022-07-03T12:31:48;41.80;18.60
71879;DHT22;59755;43.834;4.364;2022-07-03T12:34:15;42.00;18.40
71879;DHT22;59755;43.834;4.364;2022-07-03T12:37:02;42.20;18.40
71879;DHT22;59755;43.834;4.364;2022-07-03T12:39:47;42.70;18.00
71879;DHT22;59755;43.834;4.364;2022-07-03T12:42:23;42.20;18.20
71879;DHT22;59755;43.834;4.364;2022-07-03T12:45:00;41.80;18.60
71879;DHT22;59755;43.834;4.364;2022-07-03T12:47:27;41.90;18.30
71879;DHT22;59755;43.834;4.364;2022-07-03T12:50:01;41.90;18.80
71879;DHT22;59755;43.834;4.364;2022-07-03T12:52:31;42.00;18.50
71879;DHT22;59755;43.834;4.364;2022-07-03T12:54:58;42.40;18.40
71879;DHT22;59755;43.834;4.364;2022-07-03T12:57:24;43.00;17.80
71879;DHT22;59755;43.834;4.364;2022-07-03T13:00:10;43.10;18.00
71879;DHT22;59755;43.834;4.364;2022-07-03T13:02:40;42.50;18.70
71879;DHT22;59755;43.834;4.364;2022-07-03T13:05:17;43.20;18.30
71879;DHT22;59755;43.834;4.364;2022-07-03T13:07:45;43.70;18.00
71879;DHT22;59755;43.834;4.364;2022-07-03T13:10:11;43.70;17.90
71879;DHT22;59755;43.834;4.364;2022-07-03T13:12:52;43.30;18.40
71879;DHT22;59755;43.834;4.364;2022-07-03T13:15:18;43.50;18.60
71879;DHT22;59755;43.834;4.364;2022-07-03T13:22:58;43.50;20.00
71879;DHT22;59755;43.834;4.364;2022-07-03T13:25:24;43.30;20.30
71879;DHT22;59755;43.834;4.364;2022-07-03T13:27:50;42.40;21.30
71879;DHT22;59755;43.834;4.364;2022-07-03T13:30:17;41.60;21.90
71879;DHT22;59755;43.834;4.364;2022-07-03T13:32:44;41.00;22.40
71879;DHT22;59755;43.834;4.364;2022-07-03T13:35:10;42.00;21.90
71879;DHT22;59755;43.834;4.364;2022-07-03T13:37:36;42.90;21.40
71879;DHT22;59755;43.834;4.364;2022-07-03T13:40:04;42.80;21.70
71879;DHT22;59755;43.834;4.364;2022-07-03T13:42:30;42.70;21.70
71879;DHT22;59755;43.834;4.364;2022-07-03T13:44:56;42.90;21.60
71879;DHT22;59755;43.834;4.364;2022-07-03T13:47:22;43.30;21.20
71879;DHT22;59755;43.834;4.364;2022-07-03T13:49:48;43.40;21.20
71879;DHT22;59755;43.834;4.364;2022-07-03T13:52:14;42.90;21.60
71879;DHT22;59755;43.834;4.364;2022-07-03T13:54:39;42.70;21.90
71879;DHT22;59755;43.834;4.364;2022-07-03T13:57:05;42.90;21.40
71879;DHT22;59755;43.834;4.364;2022-07-03T13:59:31;42.90;21.50
71879;DHT22;59755;43.834;4.364;2022-07-03T14:02:00;43.00;21.70
71879;DHT22;59755;43.834;4.364;2022-07-03T14:04:26;43.00;21.50
71879;DHT22;59755;43.834;4.364;2022-07-03T14:06:53;42.80;21.70
71879;DHT22;59755;43.834;4.364;2022-07-03T14:09:19;42.70;22.00
71879;DHT22;59755;43.834;4.364;2022-07-03T14:11:44;42.90;21.90
71879;DHT22;59755;43.834;4.364;2022-07-03T14:14:10;43.20;21.50
71879;DHT22;59755;43.834;4.364;2022-07-03T14:16:36;42.40;21.80
71879;DHT22;59755;43.834;4.364;2022-07-03T14:19:03;41.30;22.90
71879;DHT22;59755;43.834;4.364;2022-07-03T14:21:31;40.40;23.30
71879;DHT22;59755;43.834;4.364;2022-07-03T14:23:57;39.20;24.00
71879;DHT22;59755;43.834;4.364;2022-07-03T14:26:23;38.80;24.30
71879;DHT22;59755;43.834;4.364;2022-07-03T14:29:17;38.00;25.30
71879;DHT22;59755;43.834;4.364;2022-07-03T14:32:02;37.30;25.20
71879;DHT22;59755;43.834;4.364;2022-07-03T14:34:47;37.20;25.70
71879;DHT22;59755;43.834;4.364;2022-07-03T14:37:12;36.80;25.90
71879;DHT22;59755;43.834;4.364;2022-07-03T14:39:41;36.50;26.30
71879;DHT22;59755;43.834;4.364;2022-07-03T14:42:07;36.40;26.80
71879;DHT22;59755;43.834;4.364;2022-07-03T14:44:33;36.10;27.30
71879;DHT22;59755;43.834;4.364;2022-07-03T14:46:58;35.70;27.90
71879;DHT22;59755;43.834;4.364;2022-07-03T14:49:24;35.20;28.60
71879;DHT22;59755;43.834;4.364;2022-07-03T14:51:50;35.30;28.80
71879;DHT22;59755;43.834;4.364;2022-07-03T14:54:19;35.30;29.20
71879;DHT22;59755;43.834;4.364;2022-07-03T14:56:51;34.90;29.10
71879;DHT22;59755;43.834;4.364;2022-07-03T15:00:05;35.00;29.30
71879;DHT22;59755;43.834;4.364;2022-07-03T15:02:06;34.90;29.40
71879;DHT22;59755;43.834;4.364;2022-07-03T15:07:21;34.40;30.40
71879;DHT22;59755;43.834;4.364;2022-07-03T15:09:58;34.10;31.00
71879;DHT22;59755;43.834;4.364;2022-07-03T15:12:28;33.90;30.70
71879;DHT22;59755;43.834;4.364;2022-07-03T15:14:54;33.80;31.30
71879;DHT22;59755;43.834;4.364;2022-07-03T15:17:23;33.70;31.60
71879;DHT22;59755;43.834;4.364;2022-07-03T15:19:50;33.50;32.10
71879;DHT22;59755;43.834;4.364;2022-07-03T15:22:20;33.50;32.10
71879;DHT22;59755;43.834;4.364;2022-07-03T15:24:51;33.50;31.80
71879;DHT22;59755;43.834;4.364;2022-07-03T15:27:22;33.50;30.90
71879;DHT22;59755;43.834;4.364;2022-07-03T15:29:48;33.50;31.20
71879;DHT22;59755;43.834;4.364;2022-07-03T15:32:16;33.50;31.00
71879;DHT22;59755;43.834;4.364;2022-07-03T15:34:42;33.40;30.90
71879;DHT22;59755;43.834;4.364;2022-07-03T15:37:35;33.40;31.30
71879;DHT22;59755;43.834;4.364;2022-07-03T15:40:06;33.30;31.90
71879;DHT22;59755;43.834;4.364;2022-07-03T15:45:13;32.90;32.10
71879;DHT22;59755;43.834;4.364;2022-07-03T15:53:22;32.50;32.90
71879;DHT22;59755;43.834;4.364;2022-07-03T15:55:53;32.50;32.90
71879;DHT22;59755;43.834;4.364;2022-07-03T15:58:27;32.40;32.50
71879;DHT22;59755;43.834;4.364;2022-07-03T16:00:55;32.60;32.00
71879;DHT22;59755;43.834;4.364;2022-07-03T16:04:06;32.50;32.90
71879;DHT22;59755;43.834;4.364;2022-07-03T16:06:35;32.30;33.40
71879;DHT22;59755;43.834;4.364;2022-07-03T16:09:04;32.30;33.60
71879;DHT22;59755;43.834;4.364;2022-07-03T16:11:30;32.40;34.00
71879;DHT22;59755;43.834;4.364;2022-07-03T16:13:57;32.40;33.70
71879;DHT22;59755;43.834;4.364;2022-07-03T16:16:27;32.40;33.40
71879;DHT22;59755;43.834;4.364;2022-07-03T16:18:54;32.30;33.70
71879;DHT22;59755;43.834;4.364;2022-07-03T16:21:21;32.30;33.60
71879;DHT22;59755;43.834;4.364;2022-07-03T16:23:49;32.40;33.50
71879;DHT22;59755;43.834;4.364;2022-07-03T16:26:16;32.10;33.90
71879;DHT22;59755;43.834;4.364;2022-07-03T16:28:42;32.10;34.20
71879;DHT22;59755;43.834;4.364;2022-07-03T16:31:11;32.10;34.40
71879;DHT22;59755;43.834;4.364;2022-07-03T16:33:42;31.90;34.80
71879;DHT22;59755;43.834;4.364;2022-07-03T16:36:16;31.80;34.90
71879;DHT22;59755;43.834;4.364;2022-07-03T16:38:57;31.80;35.20
71879;DHT22;59755;43.834;4.364;2022-07-03T16:41:25;31.70;35.60
71879;DHT22;59755;43.834;4.364;2022-07-03T16:43:56;31.50;35.60
71879;DHT22;59755;43.834;4.364;2022-07-03T16:46:24;31.40;35.90
71879;DHT22;59755;43.834;4.364;2022-07-03T16:48:53;31.20;36.70
71879;DHT22;59755;43.834;4.364;2022-07-03T16:51:19;31.10;36.80
71879;DHT22;59755;43.834;4.364;2022-07-03T16:53:47;31.10;36.40
71879;DHT22;59755;43.834;4.364;2022-07-03T16:56:13;31.10;36.50
71879;DHT22;59755;43.834;4.364;2022-07-03T16:58:43;31.00;36.60
71879;DHT22;59755;43.834;4.364;2022-07-03T17:01:09;31.00;36.80
71879;DHT22;59755;43.834;4.364;2022-07-03T17:03:36;30.90;36.40
71879;DHT22;59755;43.834;4.364;2022-07-03T17:06:04;30.90;35.90
71879;DHT22;59755;43.834;4.364;2022-07-03T17:08:31;30.80;35.10
71879;DHT22;59755;43.834;4.364;2022-07-03T17:10:57;30.80;35.60
71879;DHT22;59755;43.834;4.364;2022-07-03T17:13:24;30.70;35.60